Terminal Aerodrome Forecast
Issued by NWS

Home | Current Version | Previous Version | Text Only | Print | Product List | Glossary On
Versions: 1 2 3 4 5 6 7 8 9 10 11 12 13 14 15 16 17 18 19 20
220
FTUS43 KGRR 110131 AAA
TAFAZO
TAF AMD
KAZO 110131Z 1102/1124 33008KT P6SM -SHSN BKN050
     FM111600 31008KT 2SM -SHSN OVC025=

USA.gov is the U.S. government's official web portal to all federal, state and local government web resources and services.